Flight Track Log - Related Links

Times and Time Zones

All times are in EDT time to prevent confusion due to time zone crossing. See the N589H flight status page for this flight to view local times or setup timezone preferences in your user account.

Time Position Orientation Groundspeed Altitude Reporting Facility
EDT Latitude Longitude Course Direction KTS MPH feet Rate Location/Type
Thu 01:49:20 PM 27.9000 -82.6833 180° South 159 183 500  Level Tampa TRACON
Thu 01:49:57 PM 27.8667 -82.6833 180° South 170 196 1,500 1,237 Climbing Tampa TRACON
Thu 01:50:57 PM 27.8000 -82.7000 149° Southeast 222 255 2,500 1,500 Climbing Tampa TRACON
Thu 01:51:00 PM 27.8150 -82.6322 149° Southeast  Level FlightAware Approximate
Thu 01:51:57 PM 27.7500 -82.7000 180° South 228 262 4,500  Level Tampa TRACON
Thu 01:54:18 PM 27.6239 -82.6244 152° Southeast 217 250 9,300 2,039 Climbing Miami Center
Thu 01:55:20 PM 27.5692 -82.5922 152° Southeast 219 252 11,400 1,984 Climbing Miami Center
Thu 01:56:22 PM 27.5133 -82.5597 153° Southeast 222 255 13,400 1,935 Climbing Miami Center
Thu 01:57:24 PM 27.4583 -82.5242 150° Southeast 226 260 15,400 1,935 Climbing Miami Center
Thu 01:58:26 PM 27.4058 -82.4875 148° Southeast 226 260 17,400 1,427 Climbing Miami Center
Thu 02:01:32 PM 27.2189 -82.3719 117° Southeast 268 308 21,300 1,210 Climbing Miami Center
Thu 02:02:34 PM 27.1461 -82.3322 154° Southeast 286 329 22,400 1,065 Climbing Miami Center
Thu 02:04:38 PM 27.0094 -82.2039 116° Southeast 303 349 24,600 1,059 Climbing Miami Center
Thu 02:05:41 PM 26.9761 -82.1161 113° Southeast 310 357 25,700 1,008 Climbing Miami Center
Thu 02:06:43 PM 26.9378 -82.0306 117° Southeast 309 356 26,700 1,016 Climbing Miami Center
Thu 02:07:00 PM 26.8962 -81.8149 117° Southeast  Level FlightAware Approximate
Thu 02:07:45 PM 26.9006 -81.9469 117° Southeast 304 350 27,800  Level Miami Center
Thu 02:11:53 PM 26.7411 -81.6022 116° Southeast 299 344 31,200 774 Climbing Miami Center
Thu 02:12:55 PM 26.7006 -81.5139 117° Southeast 303 349 31,800 532 Climbing Miami Center
Thu 02:13:57 PM 26.6614 -81.4317 118° Southeast 311 358 32,300 484 Climbing Miami Center
Thu 02:14:59 PM 26.6197 -81.3417 117° Southeast 311 358 32,800 516 Climbing Miami Center
Thu 02:16:00 PM 26.5430 -81.2172 116° Southeast  Level FlightAware Approximate
Thu 02:17:00 PM 26.5037 -81.1265 116° Southeast  Level FlightAware Approximate
Thu 02:17:03 PM 26.5358 -81.1625 118° Southeast 311 358 33,900  Level Miami Center
Thu 02:19:07 PM 26.4525 -80.9844 118° Southeast 308 354 34,900 242 Climbing Miami Center
Thu 02:21:11 PM 26.3692 -80.8086 118° Southeast 324 373 34,900  Level Miami Center
Thu 02:22:13 PM 26.3225 -80.7108 118° Southeast 329 379 34,900  Level Miami Center
Thu 02:23:15 PM 26.2783 -80.6181 118° Southeast 337 388 34,900  Level Miami Center
Thu 02:27:24 PM 26.0914 -80.2264 118° Southeast 353 406 34,900  Level Miami Center
Thu 02:29:28 PM 25.9989 -80.0342 119° Southeast 351 404 34,900  Level Miami Center
Thu 02:31:32 PM 25.9069 -79.8442 118° Southeast 347 399 34,900  Level Miami Center
Thu 02:32:00 PM 25.9039 -79.8456 118° Southeast  Level FlightAware Approximate
Thu 02:32:35 PM 25.8608 -79.7486 118° Southeast 350 403 34,900  Level Miami Center
Thu 02:33:37 PM 25.8050 -79.6328 118° Southeast 351 404 34,900  Level Miami Center
Thu 02:35:41 PM 25.7117 -79.4422 118° Southeast 352 405 34,900  Level Miami Center
Thu 02:37:45 PM 25.6194 -79.2508 118° Southeast 352 405 34,900  Level Miami Center
Thu 02:39:49 PM 25.5158 -79.0411 119° Southeast 354 407 34,900  Level Miami Center
Thu 02:41:53 PM 25.4197 -78.8436 118° Southeast 352 405 34,900  Level Miami Center
Thu 02:42:55 PM 25.3711 -78.7492 120° Southeast 351 404 34,900  Level Miami Center
Thu 02:43:57 PM 25.3258 -78.6553 118° Southeast 349 402 34,900  Level Miami Center
Thu 02:45:00 PM 25.2747 -78.5503 118° Southeast 350 403 34,900  Level Miami Center
Thu 02:46:02 PM 25.2267 -78.4561 119° Southeast 350 403 34,900  Level Miami Center
Thu 02:47:04 PM 25.1789 -78.3622 119° Southeast 350 403 34,900  Level Miami Center
Thu 02:48:06 PM 25.1256 -78.2594 120° Southeast 350 403 34,900  Level Miami Center
Thu 02:49:08 PM 25.0806 -78.1633 117° Southeast 351 404 34,900  Level Miami Center
Thu 02:50:10 PM 25.0458 -78.0617 111° Southeast 352 405 34,900  Level Miami Center
Thu 02:51:12 PM 25.0106 -77.9511 109° East 352 405 34,900  Level Miami Center
Thu 02:52:14 PM 24.9739 -77.8522 112° Southeast 351 404 34,900  Level Miami Center
Thu 02:53:16 PM 24.9372 -77.7531 112° Southeast 349 402 34,900  Level Miami Center
Thu 02:54:18 PM 24.8964 -77.6453 113° Southeast 349 402 34,900  Level Miami Center
Thu 02:55:20 PM 24.8589 -77.5469 113° Southeast 349 402 34,900  Level Miami Center
Thu 02:56:22 PM 24.8125 -77.4553 119° Southeast 348 400 34,900  Level Miami Center
Thu 02:57:24 PM 24.7517 -77.3600 125° Southeast 348 400 34,900  Level Miami Center
Thu 02:58:26 PM 24.6958 -77.2719 125° Southeast 348 400 34,900  Level Miami Center
Thu 02:59:27 PM 24.6414 -77.1842 124° Southeast 348 400 34,900  Level Miami Center
Thu 03:03:35 PM 24.4108 -76.8150 123° Southeast 349 402 34,900  Level Miami Center
Thu 03:04:37 PM 24.3550 -76.7267 125° Southeast 349 402 34,900  Level Miami Center
Thu 03:05:39 PM 24.2992 -76.6397 125° Southeast 349 402 34,900  Level Miami Center
Thu 03:06:41 PM 24.2428 -76.5478 124° Southeast 350 403 34,900  Level Miami Center
Thu 03:09:47 PM 24.0758 -76.2839 131° Southeast 351 404 34,900  Level Miami Center
Thu 03:10:49 PM 24.0083 -76.1786 125° Southeast 351 404 34,900  Level Miami Center
Thu 03:11:51 PM 23.9525 -76.0903 125° Southeast 351 404 34,900  Level Miami Center
Thu 03:12:53 PM 23.8978 -76.0008 124° Southeast 351 404 34,900  Level Miami Center
Thu 03:13:55 PM 23.8419 -75.9125 125° Southeast 352 405 34,900  Level Miami Center
Thu 03:17:01 PM 23.6736 -75.6469 105° East 352 405 34,900  Level Miami Center
Thu 03:18:03 PM 23.6158 -75.5583 125° Southeast 352 405 34,900  Level Miami Center
Thu 03:20:07 PM 23.4900 -75.3656 125° Southeast 352 405 34,900  Level Miami Center
Thu 03:22:11 PM 23.3767 -75.1892 125° Southeast 352 405 34,900  Level Miami Center
Thu 03:23:13 PM 23.3197 -75.1011 125° Southeast 352 405 34,900  Level Miami Center
Thu 03:25:18 PM 23.2053 -74.9256 125° Southeast 354 407 34,900  Level Miami Center
Thu 03:26:20 PM 23.1361 -74.8214 126° Southeast 354 407 34,900  Level Miami Center
Thu 03:27:22 PM 23.0781 -74.7328 125° Southeast 355 409 34,900  Level Miami Center
Thu 03:28:24 PM 23.0214 -74.6447 125° Southeast 355 409 34,900  Level Miami Center
Thu 03:30:28 PM 22.9078 -74.4692 134° Southeast 355 409 34,900  Level Miami Center
Thu 03:31:30 PM 22.8494 -74.3803 125° Southeast 356 410 34,900  Level Miami Center
Thu 03:33:34 PM 22.7225 -74.1861 134° Southeast 358 412 34,900  Level Miami Center
Thu 03:34:36 PM 22.6639 -74.0986 126° Southeast 358 412 34,900  Level Miami Center
Thu 03:35:39 PM 22.6058 -74.0103 125° Southeast 358 412 34,900  Level Miami Center
Thu 03:36:40 PM 22.5481 -73.9208 125° Southeast 359 413 34,900  Level Miami Center
Thu 03:37:42 PM 22.4892 -73.8342 126° Southeast 359 413 34,900  Level Miami Center
Thu 03:39:46 PM 22.3608 -73.6394 135° Southeast 359 413 34,900  Level Miami Center
Thu 03:40:48 PM 22.3017 -73.5517 126° Southeast 360 414 34,900  Level Miami Center
Thu 03:41:50 PM 22.2447 -73.4633 125° Southeast 359 413 34,900  Level Miami Center
Thu 03:42:52 PM 22.1853 -73.3769 127° Southeast 360 414 34,900  Level Miami Center
Thu 03:43:54 PM 22.1272 -73.2889 125° Southeast 362 417 34,900  Level Miami Center
Thu 03:44:56 PM 22.0578 -73.1842 126° Southeast 360 414 34,900  Level Miami Center
Thu 03:48:02 PM 21.8817 -72.9236 137° Southeast 358 412 34,900 -210 Level Miami Center
Thu 03:51:08 PM 21.7064 -72.6619 138° Southeast 366 421 33,600 -460 Descending Miami Center
Thu 03:52:10 PM 21.6328 -72.5514 126° Southeast 377 434 33,000 -339 Descending Miami Center
Thu 03:53:00 PM 21.5253 -72.6532 137° Southeast  Level Estimated
Thu 03:53:12 PM 21.5728 -72.4631 126° Southeast 373 429 32,900  Level Miami Center
Thu 03:54:14 PM 21.5139 -72.3781 127° Southeast 361 415 32,900  Level Miami Center
Thu 03:55:16 PM 21.4561 -72.2933 126° Southeast 357 411 32,900  Level Miami Center
Thu 03:57:19 PM 21.3417 -72.1247 126° Southeast 353 406 32,900  Level Miami Center
Thu 03:59:23 PM 21.2136 -71.9411 127° Southeast 351 404 32,900  Level Miami Center
Thu 04:00:25 PM 21.1553 -71.8564 126° Southeast 352 405 32,900  Level Miami Center
Thu 04:01:27 PM 21.0958 -71.7725 127° Southeast 352 405 32,900  Level Miami Center
Thu 04:02:29 PM 21.0378 -71.6867 126° Southeast 352 405 32,900  Level Miami Center
Thu 04:05:35 PM 20.8492 -71.4133 142° Southeast 356 410 32,900  Level Miami Center
Thu 04:06:37 PM 20.7900 -71.3286 127° Southeast 356 410 32,900  Level Miami Center
Thu 04:08:41 PM 20.6725 -71.1594 152° Southeast 356 410 32,900  Level Miami Center
Thu 04:10:45 PM 20.5428 -70.9722 145° Southeast 356 410 32,900  Level Miami Center
Thu 04:11:00 PM 20.4561 -71.1491 142° Southeast  Level FlightAware Approximate
Thu 04:11:47 PM 20.4839 -70.8881 127° Southeast 356 410 32,900  Level Miami Center
Thu 04:13:00 PM 20.3883 -70.8305 163° South  Level Estimated
Thu 04:17:00 PM 20.0292 -70.7712 145° Southeast  Level Estimated
Thu 04:20:00 PM 19.8380 -70.5008 163° South  Level Estimated
Thu 04:21:00 PM 19.7593 -70.4539 145° Southeast  Level Estimated
Thu 04:22:00 PM 19.6694 -70.4620 185° South  Level FlightAware Approximate
Thu 04:23:00 PM 19.5923 -70.4122 148° Southeast  Level Estimated
Thu 04:24:00 PM 19.5107 -70.3716 155° Southeast  Level FlightAware Approximate
Thu 04:25:00 PM 19.4290 -70.3310 155° Southeast  Level FlightAware Approximate
Thu 04:26:00 PM 19.3526 -70.2801 145° Southeast  Level Estimated
Thu 04:27:00 PM 19.2764 -70.2290 148° Southeast  Level FlightAware Approximate
Thu 04:28:00 PM 19.2001 -70.1780 148° Southeast  Level FlightAware Approximate
Thu 04:29:00 PM 19.1237 -70.1272 148° Southeast  Level Estimated
Thu 04:30:00 PM 19.0464 -70.0780 149° Southeast  Level FlightAware Approximate
Thu 04:31:00 PM 18.9701 -70.0272 146° Southeast  Level Estimated
Thu 04:32:00 PM 18.8943 -69.9755 147° Southeast  Level FlightAware Approximate
Thu 04:33:00 PM 18.8185 -69.9239 147° Southeast  Level FlightAware Approximate
Thu 04:34:00 PM 18.7419 -69.8736 148° Southeast  Level Estimated
Thu 04:35:00 PM 18.6653 -69.8233 148° Southeast  Level Estimated
Thu 04:36:00 PM 18.5886 -69.7730 145° Southeast  Level Estimated
Thu 04:37:00 PM 18.5120 -69.7228 150° Southeast  Level Estimated
Thu 04:38:00 PM 18.4390 -69.6670 144° Southeast  Level FlightAware Approximate
Thu 04:39:00 PM 18.4297 -69.6689 144° Southeast  Level Estimated
Thu 04:40:00 PM 18.4297 -69.6689 126° Southeast  Level Estimated
Thu 04:41:00 PM 18.4297 -69.6689 126° Southeast  Level Estimated
Thu 04:42:00 PM 18.4297 -69.6689 126° Southeast  Level Estimated
Thu 04:43:00 PM 18.4297 -69.6689 126° Southeast  Level Estimated
Thu 04:44:00 PM 18.4297 -69.6689 126° Southeast  Level Estimated
Thu 04:45:00 PM 18.4297 -69.6689 126° Southeast  Level Estimated
Thu 04:46:00 PM 18.4297 -69.6689 126° Southeast  Level Estimated
Thu 04:47:00 PM 18.4297 -69.6689 126° Southeast  Level Estimated

Login

Don't have an account? Register now (free) for customized features, flight alerts, and more!